Time;durP1;ratioP1;P1;durP2;ratioP2;P2;SDS_P1;SDS_P2;PMS_P1;PMS_P2;Temp;Humidity;BMP_temperature;BMP_pressure;BME280_temperature;BME280_humidity;BME280_pressure;Samples;Min_cycle;Max_cycle;Signal;HPM_P1;HPM_P2
2023/10/21 00:01:14;;;;;;;0.45;0.40;;;14.40;99.90;;;;;;5108001;28;20539;-82
2023/10/21 00:03:41;;;;;;;0.60;0.30;;;14.40;99.90;;;;;;5108035;28;20159;-82
2023/10/21 00:06:08;;;;;;;0.40;0.28;;;14.30;99.90;;;;;;5107465;28;20052;-81
2023/10/21 00:08:36;;;;;;;0.45;0.40;;;14.30;99.90;;;;;;5106962;28;20047;-80
2023/10/21 00:11:09;;;;;;;0.93;0.40;;;14.40;99.90;;;;;;5105428;28;20137;-82
2023/10/21 00:13:36;;;;;;;;;;;14.30;1.00;;;;;;5107385;28;20047;-82
2023/10/21 00:16:03;;;;;;;0.88;0.30;;;14.30;1.00;;;;;;5106954;28;19923;-82
2023/10/21 00:18:30;;;;;;;0.30;0.25;;;14.30;1.00;;;;;;5088546;28;20595;-82
2023/10/21 00:20:57;;;;;;;0.30;0.30;;;14.30;1.00;;;;;;5089338;28;20043;-83
2023/10/21 00:23:24;;;;;;;0.47;0.28;;;14.30;36.70;;;;;;5106174;28;20066;-82
2023/10/21 00:25:50;;;;;;;0.20;0.20;;;14.30;57.90;;;;;;5105924;28;20497;-82
2023/10/21 00:28:17;;;;;;;0.38;0.38;;;14.40;99.20;;;;;;5106577;28;20047;-82
2023/10/21 00:30:45;;;;;;;0.15;0.13;;;14.40;97.60;;;;;;5106876;28;20459;-82
2023/10/21 00:33:13;;;;;;;0.70;0.35;;;14.40;90.30;;;;;;5105296;28;20044;-82
2023/10/21 00:35:44;;;;;;;0.35;0.35;;;14.40;95.60;;;;;;5104848;28;20493;-82
2023/10/21 00:38:10;;;;;;;0.55;0.40;;;14.40;53.80;;;;;;5104815;28;20234;-82
2023/10/21 00:40:38;;;;;;;1.33;0.40;;;14.40;15.40;;;;;;5104801;28;20091;-81
2023/10/21 00:43:04;;;;;;;1.35;0.60;;;14.40;1.00;;;;;;5104697;28;20381;-82
2023/10/21 00:45:31;;;;;;;0.73;0.45;;;14.30;1.00;;;;;;5104625;28;20046;-82
2023/10/21 00:47:58;;;;;;;1.10;0.40;;;14.30;1.00;;;;;;5088023;28;20063;-82
2023/10/21 00:50:25;;;;;;;1.02;0.50;;;14.30;39.40;;;;;;5104873;28;20051;-82
2023/10/21 00:52:51;;;;;;;0.43;0.30;;;14.30;21.70;;;;;;5106479;28;20047;-82
2023/10/21 00:55:18;;;;;;;0.50;0.30;;;14.30;1.00;;;;;;5087065;28;20494;-82
2023/10/21 00:57:45;;;;;;;0.75;0.20;;;14.20;1.00;;;;;;5087580;28;20475;-82
2023/10/21 01:00:12;;;;;;;0.45;0.40;;;14.20;2.20;;;;;;5104943;28;20108;-82
2023/10/21 01:02:42;;;;;;;0.68;0.32;;;14.20;1.00;;;;;;5103869;28;20040;-83
2023/10/21 01:05:10;;;;;;;1.70;0.57;;;14.20;32.90;;;;;;5100734;28;20055;-83
2023/10/21 01:07:36;;;;;;;1.13;0.50;;;14.20;90.60;;;;;;5104550;28;20048;-82
2023/10/21 01:10:04;;;;;;;0.70;0.45;;;14.20;94.10;;;;;;5086784;28;20575;-82
2023/10/21 01:12:31;;;;;;;0.65;0.45;;;14.20;90.70;;;;;;5105917;28;20089;-82
2023/10/21 01:14:57;;;;;;;0.68;0.40;;;14.20;38.60;;;;;;5104238;28;20421;-82
2023/10/21 01:17:24;;;;;;;1.10;0.40;;;14.20;36.60;;;;;;5096330;28;20127;-82
2023/10/21 01:19:51;;;;;;;0.65;0.47;;;14.10;1.00;;;;;;5087172;28;20050;-81
2023/10/21 01:22:18;;;;;;;0.30;0.30;;;14.10;40.30;;;;;;5077722;28;20075;-82
2023/10/21 01:24:44;;;;;;;1.35;0.77;;;14.10;86.00;;;;;;5067188;28;20143;-82
2023/10/21 01:27:11;;;;;;;0.63;0.30;;;14.10;96.40;;;;;;5087811;28;20039;-82
2023/10/21 01:29:38;;;;;;;1.02;0.60;;;14.10;72.60;;;;;;5105668;28;20070;-82
2023/10/21 01:32:05;;;;;;;0.90;0.40;;;14.00;94.20;;;;;;5091510;28;20155;-82
2023/10/21 01:34:32;;;;;;;0.68;0.40;;;14.00;46.30;;;;;;5083958;28;20055;-82
2023/10/21 01:36:59;;;;;;;0.52;0.20;;;14.00;32.70;;;;;;5099699;28;20103;-82
2023/10/21 01:39:26;;;;;;;1.10;0.55;;;13.90;72.90;;;;;;5103576;28;20465;-81
2023/10/21 01:41:53;;;;;;;0.88;0.40;;;13.90;97.80;;;;;;5088557;28;20385;-82
2023/10/21 01:44:20;;;;;;;1.05;0.93;;;13.90;99.90;;;;;;5104299;28;20079;-82
2023/10/21 01:46:47;;;;;;;0.32;0.30;;;13.90;99.90;;;;;;5069116;28;20067;-83
2023/10/21 01:49:13;;;;;;;1.13;0.55;;;13.90;99.90;;;;;;5106160;28;20147;-82
2023/10/21 01:51:40;;;;;;;0.30;0.30;;;13.90;99.90;;;;;;5087514;28;20051;-83
2023/10/21 01:54:07;;;;;;;1.00;0.40;;;13.80;99.90;;;;;;5104751;28;20089;-83
2023/10/21 01:56:34;;;;;;;1.40;0.40;;;13.80;99.90;;;;;;5106184;28;20142;-82
2023/10/21 01:59:01;;;;;;;0.85;0.38;;;13.80;99.90;;;;;;5109978;28;20382;-84
2023/10/21 02:01:28;;;;;;;0.75;0.35;;;13.80;99.90;;;;;;5109776;28;20434;-83
2023/10/21 02:03:55;;;;;;;0.45;0.32;;;13.80;99.90;;;;;;5108571;28;20065;-84
2023/10/21 02:06:22;;;;;;;1.20;0.70;;;13.90;99.90;;;;;;5091292;28;20392;-82
2023/10/21 02:08:49;;;;;;;1.88;0.60;;;13.90;99.90;;;;;;5091091;28;20116;-82
2023/10/21 02:11:20;;;;;;;1.55;0.50;;;13.90;99.90;;;;;;5091171;28;20039;-82
2023/10/21 02:13:47;;;;;;;1.85;0.57;;;14.00;99.90;;;;;;5091420;28;20075;-83
2023/10/21 02:16:14;;;;;;;1.85;0.50;;;14.00;99.90;;;;;;5109923;28;20048;-82
2023/10/21 02:18:41;;;;;;;0.50;0.40;;;14.00;99.90;;;;;;5091014;28;20071;-82
2023/10/21 02:21:08;;;;;;;0.57;0.32;;;14.10;99.90;;;;;;5091384;28;20204;-82
2023/10/21 02:23:34;;;;;;;2.17;0.93;;;14.10;99.90;;;;;;5090585;28;20069;-82
2023/10/21 02:26:05;;;;;;;0.95;0.22;;;14.10;99.90;;;;;;5107581;28;20069;-83
2023/10/21 02:28:32;;;;;;;0.60;0.40;;;14.10;99.90;;;;;;5090925;28;20120;-82
2023/10/21 02:31:04;;;;;;;1.70;0.50;;;14.20;99.90;;;;;;5108023;28;20044;-82
2023/10/21 02:33:31;;;;;;;1.27;0.38;;;14.10;64.20;;;;;;5107898;28;20052;-83
2023/10/21 02:35:58;;;;;;;0.73;0.30;;;14.10;33.90;;;;;;5109328;28;20047;-83
2023/10/21 02:38:25;;;;;;;0.40;0.30;;;14.10;11.50;;;;;;5108724;28;20044;-82
2023/10/21 02:40:51;;;;;;;0.57;0.45;;;14.10;1.00;;;;;;5106602;28;20048;-83
2023/10/21 02:43:18;;;;;;;0.45;0.30;;;14.10;1.00;;;;;;5090738;28;20097;-83
2023/10/21 02:45:45;;;;;;;0.30;0.20;;;14.10;1.00;;;;;;5090884;28;20047;-83
2023/10/21 02:48:12;;;;;;;1.15;0.30;;;14.00;1.00;;;;;;5109274;28;20047;-82
2023/10/21 02:50:39;;;;;;;0.68;0.43;;;14.00;1.00;;;;;;5108175;28;20862;-82
2023/10/21 02:53:06;;;;;;;0.38;0.20;;;14.00;1.00;;;;;;5109146;28;20093;-81
2023/10/21 02:55:32;;;;;;;0.55;0.32;;;13.90;1.00;;;;;;5106782;28;20058;-83
2023/10/21 02:57:59;;;;;;;0.68;0.30;;;13.90;1.00;;;;;;5108859;28;20056;-83
2023/10/21 03:00:26;;;;;;;0.52;0.50;;;13.90;1.00;;;;;;5104554;28;20617;-83
2023/10/21 03:02:53;;;;;;;0.30;0.30;;;13.80;1.00;;;;;;5105062;28;20499;-82
2023/10/21 03:05:20;;;;;;;2.55;0.57;;;13.80;1.00;;;;;;5105944;28;20357;-82
2023/10/21 03:07:47;;;;;;;0.38;0.30;;;13.70;39.70;;;;;;5105249;28;20044;-82
2023/10/21 03:10:13;;;;;;;0.40;0.20;;;13.80;35.60;;;;;;5104145;28;20528;-83
2023/10/21 03:12:40;;;;;;;0.85;0.32;;;13.70;2.80;;;;;;5106192;28;20047;-82
2023/10/21 03:15:10;;;;;;;0.73;0.30;;;13.70;9.80;;;;;;5105453;28;20066;-82
2023/10/21 03:17:37;;;;;;;0.52;0.30;;;13.60;50.80;;;;;;5088330;28;20087;-83
2023/10/21 03:20:06;;;;;;;0.20;0.20;;;13.60;99.90;;;;;;5106637;28;20056;-83
2023/10/21 03:22:32;;;;;;;0.85;0.40;;;13.60;99.90;;;;;;5105162;28;20142;-83
2023/10/21 03:24:59;;;;;;;0.20;0.20;;;13.60;99.90;;;;;;5070891;28;20518;-82
2023/10/21 03:27:26;;;;;;;0.60;0.28;;;13.50;99.90;;;;;;5104159;28;20150;-82
2023/10/21 03:29:53;;;;;;;0.65;0.25;;;13.50;99.90;;;;;;5105187;28;20150;-81
2023/10/21 03:32:20;;;;;;;0.43;0.10;;;13.50;99.90;;;;;;5105091;28;20074;-81
2023/10/21 03:34:46;;;;;;;0.15;0.15;;;13.50;99.90;;;;;;5105054;28;20043;-82
2023/10/21 03:37:13;;;;;;;0.22;0.20;;;13.50;99.90;;;;;;5104472;28;20052;-82
2023/10/21 03:39:41;;;;;;;0.30;0.30;;;13.40;99.90;;;;;;5103528;28;20089;-81
2023/10/21 03:42:08;;;;;;;0.30;0.20;;;13.40;99.90;;;;;;5104517;28;20389;-81
2023/10/21 03:44:34;;;;;;;0.10;0.10;;;13.40;99.90;;;;;;5111390;28;20062;-82
2023/10/21 03:47:01;;;;;;;0.45;0.30;;;13.40;99.90;;;;;;5110435;28;20485;-81
2023/10/21 03:49:30;;;;;;;0.40;0.20;;;13.40;99.90;;;;;;5106359;28;20100;-81
2023/10/21 03:51:57;;;;;;;0.10;0.10;;;13.30;99.90;;;;;;5106886;28;20044;-83
2023/10/21 03:54:23;;;;;;;0.10;0.10;;;13.30;99.90;;;;;;5103900;28;20066;-82
2023/10/21 03:56:51;;;;;;;0.30;0.20;;;13.30;99.90;;;;;;5104189;28;20055;-81
2023/10/21 03:59:18;;;;;;;0.25;0.25;;;13.30;99.90;;;;;;5105746;28;20059;-82
2023/10/21 04:01:45;;;;;;;0.25;0.13;;;13.20;99.90;;;;;;5104236;28;20128;-81
2023/10/21 04:04:12;;;;;;;0.10;0.10;;;13.20;99.90;;;;;;5104247;28;20048;-81
2023/10/21 04:06:39;;;;;;;0.20;0.20;;;13.20;99.90;;;;;;5104074;28;20634;-81
2023/10/21 04:09:07;;;;;;;0.22;0.20;;;13.10;99.90;;;;;;5104421;28;20546;-81
2023/10/21 04:11:35;;;;;;;0.65;0.20;;;13.10;99.90;;;;;;5103499;28;20047;-81
2023/10/21 04:14:04;;;;;;;0.20;0.10;;;13.20;99.90;;;;;;5105587;28;20039;-81
2023/10/21 04:16:32;;;;;;;0.10;0.10;;;13.20;99.90;;;;;;5104215;28;20063;-81
2023/10/21 04:18:58;;;;;;;0.30;0.10;;;13.20;99.90;;;;;;5086332;28;20154;-81
2023/10/21 04:21:25;;;;;;;0.57;0.22;;;13.20;99.90;;;;;;5103350;28;20140;-81
2023/10/21 04:23:52;;;;;;;0.25;0.22;;;13.10;99.90;;;;;;5104815;27;20044;-81
2023/10/21 04:26:19;;;;;;;0.10;0.10;;;13.10;99.90;;;;;;5104454;28;20553;-82
2023/10/21 04:28:47;;;;;;;0.47;0.20;;;13.10;99.90;;;;;;5103720;28;20200;-81
2023/10/21 04:31:13;;;;;;;0.25;0.10;;;13.00;1.00;;;;;;5070196;28;20044;-81
2023/10/21 04:33:40;;;;;;;0.10;0.10;;;13.00;1.00;;;;;;5104140;28;20051;-81
2023/10/21 04:36:08;;;;;;;0.32;0.22;;;13.10;1.00;;;;;;5105204;28;20127;-81
2023/10/21 04:38:35;;;;;;;0.43;0.25;;;13.10;50.20;;;;;;5103191;28;20048;-82
2023/10/21 04:41:02;;;;;;;0.08;0.08;;;13.10;83.70;;;;;;5104243;28;20066;-82
2023/10/21 04:43:29;;;;;;;0.30;0.15;;;13.20;99.90;;;;;;5093971;28;20163;-82
2023/10/21 04:45:56;;;;;;;0.10;0.10;;;13.30;99.90;;;;;;5104146;28;20096;-81
2023/10/21 04:48:23;;;;;;;0.10;0.10;;;13.30;99.90;;;;;;5070381;28;20100;-81
2023/10/21 04:50:49;;;;;;;0.10;0.10;;;13.40;99.90;;;;;;5105241;28;20051;-81
2023/10/21 04:53:16;;;;;;;0.20;0.17;;;13.40;99.90;;;;;;5104465;28;20560;-80
2023/10/21 04:55:43;;;;;;;0.20;0.20;;;13.50;99.90;;;;;;5085987;28;20059;-81
2023/10/21 04:58:10;;;;;;;0.10;0.10;;;13.50;99.90;;;;;;5104859;28;20044;-81
2023/10/21 05:00:36;;;;;;;0.20;0.20;;;13.50;99.90;;;;;;5103039;28;20075;-81
2023/10/21 05:03:03;;;;;;;0.20;0.10;;;13.50;99.90;;;;;;5095511;28;20055;-82
2023/10/21 05:05:30;;;;;;;0.10;0.10;;;13.60;99.90;;;;;;5064074;28;20044;-82
2023/10/21 05:07:57;;;;;;;0.40;0.17;;;13.60;99.90;;;;;;5082541;28;20044;-81
2023/10/21 05:10:24;;;;;;;0.17;0.17;;;13.60;99.90;;;;;;5080358;28;20060;-82
2023/10/21 05:12:51;;;;;;;0.10;0.10;;;13.70;99.90;;;;;;5101595;28;20134;-82
2023/10/21 05:15:17;;;;;;;0.22;0.13;;;13.70;99.90;;;;;;5101310;28;20100;-81
2023/10/21 05:17:44;;;;;;;0.20;0.17;;;13.70;99.90;;;;;;5102288;28;20051;-81
2023/10/21 05:20:12;;;;;;;0.47;0.20;;;13.80;99.90;;;;;;5101173;28;20055;-81
2023/10/21 05:22:39;;;;;;;0.20;0.10;;;13.80;99.90;;;;;;5102273;28;20075;-83
2023/10/21 05:25:07;;;;;;;0.57;0.32;;;13.80;99.90;;;;;;5101237;28;20180;-81
2023/10/21 05:27:34;;;;;;;0.10;0.10;;;13.80;99.90;;;;;;5083878;28;20083;-82
2023/10/21 05:30:01;;;;;;;0.30;0.20;;;13.80;99.90;;;;;;5102520;28;20079;-82
2023/10/21 05:32:28;;;;;;;0.10;0.10;;;13.80;99.90;;;;;;5099625;28;20066;-81
2023/10/21 05:34:55;;;;;;;0.15;0.10;;;13.90;99.90;;;;;;5100907;28;20493;-82
2023/10/21 05:37:22;;;;;;;0.10;0.10;;;13.90;99.90;;;;;;5102845;28;20056;-82
2023/10/21 05:39:49;;;;;;;0.28;0.15;;;13.90;99.90;;;;;;5099912;28;20108;-83
2023/10/21 05:42:15;;;;;;;0.10;0.10;;;14.00;99.90;;;;;;5083249;28;20527;-81
2023/10/21 05:44:42;;;;;;;0.10;0.10;;;14.00;99.90;;;;;;5083796;28;20507;-81
2023/10/21 05:47:15;;;;;;;0.15;0.15;;;14.00;99.90;;;;;;5100579;28;20048;-81
2023/10/21 05:49:42;;;;;;;0.10;0.10;;;14.00;95.10;;;;;;5083923;28;20434;-81
2023/10/21 05:52:09;;;;;;;0.10;0.10;;;14.00;29.80;;;;;;5080823;28;20047;-82
2023/10/21 05:54:36;;;;;;;0.15;0.10;;;14.00;35.30;;;;;;5100689;28;20055;-82
2023/10/21 05:57:04;;;;;;;0.10;0.10;;;14.00;2.00;;;;;;5101832;28;20093;-81
2023/10/21 05:59:31;;;;;;;0.43;0.10;;;14.00;1.00;;;;;;5102158;28;20057;-80
2023/10/21 06:01:58;;;;;;;0.35;0.20;;;14.00;1.00;;;;;;5100157;28;20047;-81
2023/10/21 06:04:24;;;;;;;0.10;0.10;;;14.00;1.00;;;;;;5100246;28;20524;-83
2023/10/21 06:06:54;;;;;;;0.17;0.10;;;14.00;1.00;;;;;;5102546;28;20154;-81
2023/10/21 06:09:22;;;;;;;0.10;0.10;;;14.00;1.00;;;;;;5095189;28;20101;-83
2023/10/21 06:11:51;;;;;;;0.20;0.20;;;14.00;1.00;;;;;;5101758;28;20043;-83
2023/10/21 06:14:17;;;;;;;0.20;0.20;;;14.00;1.00;;;;;;5100499;28;20047;-83
2023/10/21 06:16:45;;;;;;;0.20;0.20;;;14.00;1.00;;;;;;5102272;28;20043;-81
2023/10/21 06:19:11;;;;;;;0.35;0.20;;;14.00;1.00;;;;;;5102153;28;20043;-83
2023/10/21 06:21:38;;;;;;;0.20;0.20;;;14.00;1.00;;;;;;5100466;28;20048;-82
2023/10/21 06:24:06;;;;;;;0.10;0.10;;;13.90;1.00;;;;;;5100458;28;20040;-82
2023/10/21 06:26:33;;;;;;;0.20;0.17;;;13.90;1.00;;;;;;5100043;28;20075;-82
2023/10/21 06:29:02;;;;;;;0.52;0.20;;;13.90;1.00;;;;;;5100083;28;20171;-83
2023/10/21 06:31:28;;;;;;;0.35;0.10;;;13.90;1.00;;;;;;5082564;28;20389;-83
2023/10/21 06:33:56;;;;;;;0.10;0.10;;;13.90;1.00;;;;;;5101716;28;20051;-82
2023/10/21 06:36:23;;;;;;;0.10;0.10;;;13.90;1.00;;;;;;5100083;28;20056;-83
2023/10/21 06:38:50;;;;;;;0.10;0.10;;;13.90;1.00;;;;;;5097241;28;20120;-82
2023/10/21 06:41:17;;;;;;;0.10;0.10;;;13.90;1.00;;;;;;5087127;28;20059;-81
2023/10/21 06:43:45;;;;;;;0.20;0.20;;;13.90;1.00;;;;;;5101695;28;20044;-82
2023/10/21 06:46:13;;;;;;;0.10;0.10;;;13.90;1.00;;;;;;5105314;28;20566;-82
2023/10/21 06:48:40;;;;;;;0.20;0.20;;;13.90;1.00;;;;;;5104082;28;20048;-82
2023/10/21 06:51:07;;;;;;;0.10;0.10;;;13.80;1.00;;;;;;5104377;28;20059;-83
2023/10/21 06:53:34;;;;;;;0.20;0.20;;;13.80;1.00;;;;;;5103419;28;20071;-82
2023/10/21 06:56:01;;;;;;;0.10;0.10;;;13.80;1.00;;;;;;5098134;28;20063;-82
2023/10/21 06:58:28;;;;;;;0.10;0.10;;;13.80;1.00;;;;;;5086842;28;20684;-82
2023/10/21 07:00:56;;;;;;;0.68;0.20;;;13.80;1.00;;;;;;5100757;28;20564;-83
2023/10/21 07:03:22;;;;;;;0.30;0.30;;;13.80;1.00;;;;;;5101278;28;20465;-82
2023/10/21 07:05:49;;;;;;;0.10;0.10;;;13.80;1.00;;;;;;5085859;28;20121;-82
2023/10/21 07:08:17;;;;;;;0.10;0.10;;;13.80;1.00;;;;;;5104549;28;20043;-81
2023/10/21 07:10:43;;;;;;;0.20;0.20;;;13.80;1.00;;;;;;5105103;28;20442;-81
2023/10/21 07:13:10;;;;;;;0.30;0.20;;;13.80;1.00;;;;;;5101886;28;20040;-82
2023/10/21 07:15:37;;;;;;;0.20;0.20;;;13.70;1.00;;;;;;5104185;28;20123;-83
2023/10/21 07:18:04;;;;;;;0.30;0.28;;;13.80;22.30;;;;;;5103606;28;20131;-82
2023/10/21 07:20:31;;;;;;;0.20;0.20;;;13.70;1.00;;;;;;5103243;28;20711;-83
2023/10/21 07:22:58;;;;;;;0.10;0.10;;;13.70;61.10;;;;;;5083178;28;20043;-83
2023/10/21 07:25:25;;;;;;;0.20;0.20;;;13.70;91.90;;;;;;5099080;28;20077;-82
2023/10/21 07:27:52;;;;;;;0.10;0.10;;;13.70;99.90;;;;;;5068994;28;20063;-83
2023/10/21 07:30:19;;;;;;;0.10;0.10;;;13.80;99.90;;;;;;5097050;28;20136;-83
2023/10/21 07:32:47;;;;;;;0.13;0.13;;;13.80;99.90;;;;;;5104524;28;20056;-84
2023/10/21 07:35:14;;;;;;;0.10;0.10;;;13.70;99.90;;;;;;5104421;28;20338;-83
2023/10/21 07:37:41;;;;;;;0.47;0.30;;;13.70;99.90;;;;;;5096112;28;20044;-84
2023/10/21 07:40:09;;;;;;;0.10;0.10;;;13.80;99.90;;;;;;5099684;28;20112;-84
2023/10/21 07:42:36;;;;;;;0.10;0.10;;;13.80;99.90;;;;;;5092901;28;20566;-84
2023/10/21 07:45:04;;;;;;;0.10;0.10;;;13.70;99.90;;;;;;5081940;28;20077;-84
2023/10/21 07:47:33;;;;;;;0.10;0.10;;;13.80;99.90;;;;;;5099856;28;20051;-83
2023/10/21 07:50:06;;;;;;;0.10;0.10;;;13.80;99.90;;;;;;5100427;28;20047;-83
2023/10/21 07:52:35;;;;;;;0.00;0.00;;;13.80;99.90;;;;;;5098418;28;20044;-83
2023/10/21 07:55:03;;;;;;;0.17;0.10;;;13.80;99.90;;;;;;5095276;28;20051;-82
2023/10/21 07:57:31;;;;;;;0.10;0.10;;;13.80;99.90;;;;;;5083169;28;20040;-81
2023/10/21 07:59:58;;;;;;;0.10;0.10;;;13.90;99.90;;;;;;5080274;28;20417;-82
2023/10/21 08:02:27;;;;;;;0.35;0.20;;;13.90;99.90;;;;;;5089130;28;20057;-82
2023/10/21 08:04:54;;;;;;;0.15;0.15;;;13.90;99.90;;;;;;5089927;28;20472;-82
2023/10/21 08:07:21;;;;;;;0.10;0.10;;;14.00;99.90;;;;;;5079064;28;20055;-82
2023/10/21 08:09:49;;;;;;;0.10;0.10;;;14.10;99.90;;;;;;5092231;28;20048;-83
2023/10/21 08:12:15;;;;;;;0.47;0.10;;;14.10;99.90;;;;;;5101457;28;20473;-82
2023/10/21 08:14:42;;;;;;;0.35;0.32;;;14.10;99.90;;;;;;5094302;28;20048;-82
2023/10/21 08:17:09;;;;;;;0.10;0.10;;;14.10;75.70;;;;;;5083425;28;20079;-82
2023/10/21 08:19:36;;;;;;;0.10;0.10;;;14.10;97.00;;;;;;5100486;28;20044;-82
2023/10/21 08:22:05;;;;;;;0.10;0.10;;;14.20;99.90;;;;;;5095380;28;20572;-82
2023/10/21 08:24:32;;;;;;;0.30;0.20;;;14.30;99.90;;;;;;5095825;28;20055;-82
2023/10/21 08:26:59;;;;;;;0.20;0.20;;;14.30;99.90;;;;;;5093937;28;20134;-81
2023/10/21 08:29:26;;;;;;;0.52;0.30;;;14.30;43.10;;;;;;5095768;28;20418;-82
2023/10/21 08:31:53;;;;;;;0.93;0.50;;;14.40;81.50;;;;;;5097160;28;20096;-80
2023/10/21 08:34:20;;;;;;;0.38;0.30;;;14.40;1.00;;;;;;5085717;28;20189;-82
2023/10/21 08:36:47;;;;;;;0.40;0.35;;;14.40;95.50;;;;;;5084581;28;20047;-79
2023/10/21 08:39:13;;;;;;;0.43;0.38;;;14.50;3.50;;;;;;5097317;28;20123;-80
2023/10/21 08:41:41;;;;;;;0.55;0.30;;;14.50;1.00;;;;;;5088121;28;20048;-80
2023/10/21 08:44:08;;;;;;;0.50;0.28;;;14.50;11.60;;;;;;5100473;28;20093;-80
2023/10/21 08:46:35;;;;;;;1.25;0.35;;;14.70;1.00;;;;;;5083985;28;20047;-80
2023/10/21 08:49:03;;;;;;;0.20;0.20;;;14.70;1.00;;;;;;5090248;28;20044;-82
2023/10/21 08:51:31;;;;;;;0.20;0.20;;;14.80;1.00;;;;;;5067097;28;20083;-82
2023/10/21 08:54:05;;;;;;;0.35;0.22;;;14.80;1.00;;;;;;5099925;28;20162;-81
2023/10/21 08:56:35;;;;;;;0.20;0.20;;;14.90;99.90;;;;;;5087312;28;20051;-81
2023/10/21 08:59:02;;;;;;;0.10;0.10;;;14.90;99.90;;;;;;5083005;28;20161;-80
2023/10/21 09:01:29;;;;;;;0.10;0.10;;;14.90;99.90;;;;;;5066400;28;20139;-82
2023/10/21 09:03:56;;;;;;;0.35;0.13;;;15.00;99.90;;;;;;5095597;28;20614;-79
2023/10/21 09:06:24;;;;;;;0.25;0.10;;;15.10;99.90;;;;;;5101205;28;20300;-82
2023/10/21 09:08:51;;;;;;;0.28;0.20;;;15.20;99.90;;;;;;5064512;28;20460;-82
2023/10/21 09:11:20;;;;;;;0.45;0.20;;;15.20;99.90;;;;;;5069552;28;20043;-82
2023/10/21 09:13:49;;;;;;;0.22;0.20;;;15.30;99.90;;;;;;5085629;28;20131;-82
2023/10/21 09:16:23;;;;;;;0.25;0.25;;;15.40;99.90;;;;;;5083042;28;20051;-82
2023/10/21 09:19:04;;;;;;;0.32;0.20;;;15.30;1.00;;;;;;5099438;28;20079;-83
2023/10/21 09:21:41;;;;;;;0.28;0.25;;;15.30;25.10;;;;;;5087067;28;20039;-82
2023/10/21 09:24:12;;;;;;;0.30;0.30;;;15.30;52.10;;;;;;5082072;28;20055;-82
2023/10/21 09:26:43;;;;;;;0.20;0.20;;;15.30;1.00;;;;;;5075077;28;20048;-83
2023/10/21 09:29:13;;;;;;;0.20;0.20;;;15.30;1.00;;;;;;5084213;28;20067;-81
2023/10/21 09:31:51;;;;;;;0.20;0.20;;;15.30;1.00;;;;;;5084381;28;20101;-81
2023/10/21 09:34:26;;;;;;;0.10;0.10;;;15.40;99.90;;;;;;5099883;28;20044;-83
2023/10/21 09:36:53;;;;;;;0.28;0.20;;;15.40;1.00;;;;;;5101408;28;20051;-82
2023/10/21 09:39:21;;;;;;;0.10;0.10;;;15.40;42.80;;;;;;5094358;28;20047;-82
2023/10/21 09:41:48;;;;;;;0.15;0.15;;;15.40;19.30;;;;;;5085450;28;20335;-83
2023/10/21 09:44:16;;;;;;;0.13;0.13;;;15.50;99.90;;;;;;5087589;28;20052;-84
2023/10/21 09:46:46;;;;;;;0.10;0.10;;;15.70;62.10;;;;;;5086312;28;20284;-83
2023/10/21 09:49:14;;;;;;;0.10;0.10;;;15.70;1.00;;;;;;5081512;28;20481;-83
2023/10/21 09:52:00;;;;;;;0.25;0.20;;;15.70;1.00;;;;;;5089503;28;20108;-84
2023/10/21 09:54:41;;;;;;;0.22;0.22;;;15.80;1.00;;;;;;5072587;28;20440;-82
2023/10/21 09:57:09;;;;;;;0.30;0.20;;;15.90;1.00;;;;;;5081979;28;20375;-83
2023/10/21 09:59:37;;;;;;;0.10;0.10;;;15.90;99.90;;;;;;5065953;28;20059;-82
2023/10/21 10:02:06;;;;;;;0.38;0.20;;;15.90;99.90;;;;;;5087863;28;20070;-83
2023/10/21 10:04:36;;;;;;;0.43;0.20;;;15.80;1.00;;;;;;5084780;28;20151;-83
2023/10/21 10:07:06;;;;;;;0.10;0.10;;;15.70;99.90;;;;;;5102628;28;20108;-83
2023/10/21 10:09:40;;;;;;;0.20;0.20;;;15.70;99.90;;;;;;5082288;28;20048;-83
2023/10/21 10:12:19;;;;;;;0.13;0.13;;;15.80;99.90;;;;;;5087572;28;20078;-83
2023/10/21 10:14:46;;;;;;;0.28;0.10;;;15.90;99.90;;;;;;5092587;28;20119;-82
2023/10/21 10:17:13;;;;;;;0.10;0.10;;;16.00;99.90;;;;;;5080557;28;20060;-83
2023/10/21 10:19:42;;;;;;;0.10;0.10;;;16.00;1.00;;;;;;5087687;28;20170;-83
2023/10/21 10:22:19;;;;;;;0.30;0.22;;;16.00;99.90;;;;;;5068235;28;20155;-80
2023/10/21 10:24:56;;;;;;;0.20;0.20;;;16.00;99.90;;;;;;5094657;28;20092;-80
2023/10/21 10:27:36;;;;;;;0.15;0.15;;;16.10;99.90;;;;;;5092610;27;20062;-77
2023/10/21 10:30:24;;;;;;;0.20;0.20;;;16.20;1.00;;;;;;5088160;28;20171;-77
2023/10/21 10:32:52;;;;;;;0.20;0.20;;;16.40;1.00;;;;;;5097066;28;20166;-78
2023/10/21 10:35:37;;;;;;;0.13;0.13;;;16.50;1.00;;;;;;5090041;28;20096;-79
2023/10/21 10:38:20;;;;;;;0.10;0.10;;;16.70;99.90;;;;;;5088464;28;20059;-82
2023/10/21 10:40:47;;;;;;;0.10;0.10;;;16.80;99.90;;;;;;5079326;28;20044;-82
2023/10/21 10:43:15;;;;;;;0.43;0.20;;;16.80;1.00;;;;;;5075956;28;20124;-82
2023/10/21 10:45:42;;;;;;;0.17;0.17;;;16.90;99.90;;;;;;5069877;28;20044;-82
2023/10/21 10:48:11;;;;;;;0.25;0.10;;;16.90;99.90;;;;;;5092848;28;20048;-81
2023/10/21 10:50:38;;;;;;;0.55;0.20;;;16.80;99.90;;;;;;5073565;28;20048;-81
2023/10/21 10:53:16;;;;;;;0.90;0.32;;;16.90;1.00;;;;;;5092419;27;20131;-81
2023/10/21 10:55:46;;;;;;;0.30;0.20;;;17.00;1.00;;;;;;5101051;28;20540;-81
2023/10/21 10:58:12;;;;;;;0.45;0.20;;;17.10;1.00;;;;;;5083898;28;20519;-82
2023/10/21 11:00:39;;;;;;;0.35;0.20;;;17.30;1.00;;;;;;5104821;28;20043;-81
2023/10/21 11:03:07;;;;;;;0.28;0.20;;;17.50;99.90;;;;;;5107214;28;20051;-81
2023/10/21 11:05:37;;;;;;;0.10;0.10;;;17.70;1.00;;;;;;5105113;28;20445;-81
2023/10/21 11:08:07;;;;;;;0.15;0.15;;;17.90;1.00;;;;;;5086318;28;20051;-81
2023/10/21 11:10:37;;;;;;;0.35;0.20;;;17.90;99.90;;;;;;5102893;28;20131;-80
2023/10/21 11:13:05;;;;;;;0.20;0.15;;;17.90;99.90;;;;;;5088808;28;20130;-80
2023/10/21 11:15:32;;;;;;;0.60;0.30;;;17.70;99.90;;;;;;5088440;28;20090;-80
2023/10/21 11:18:00;;;;;;;0.32;0.20;;;17.50;99.90;;;;;;5088979;28;20054;-81
2023/10/21 11:20:27;;;;;;;0.20;0.20;;;17.20;99.90;;;;;;5108086;28;20059;-79
2023/10/21 11:22:56;;;;;;;0.43;0.20;;;16.80;99.90;;;;;;5089425;28;20051;-80
2023/10/21 11:25:24;;;;;;;1.05;0.25;;;16.50;1.00;;;;;;5105960;28;20047;-82
2023/10/21 11:27:51;;;;;;;0.25;0.20;;;16.40;99.90;;;;;;5089208;28;20101;-82
2023/10/21 11:30:18;;;;;;;0.10;0.10;;;16.20;99.90;;;;;;5089016;28;20101;-81
2023/10/21 11:32:45;;;;;;;0.20;0.10;;;16.00;1.00;;;;;;5107910;28;20069;-82
2023/10/21 11:35:13;;;;;;;0.10;0.10;;;15.90;1.00;;;;;;5107077;28;20055;-82
2023/10/21 11:37:41;;;;;;;0.17;0.10;;;15.80;90.10;;;;;;5106587;28;20043;-83
2023/10/21 11:40:09;;;;;;;0.17;0.13;;;15.70;1.00;;;;;;5107567;28;20048;-84
2023/10/21 11:42:40;;;;;;;0.80;0.30;;;15.60;99.90;;;;;;5105909;28;20903;-83
2023/10/21 11:45:09;;;;;;;0.20;0.10;;;15.70;99.90;;;;;;5108233;28;20051;-84
2023/10/21 11:47:37;;;;;;;0.13;0.13;;;15.80;99.90;;;;;;5106699;27;20052;-82
2023/10/21 11:50:09;;;;;;;0.20;0.20;;;16.00;99.90;;;;;;5087818;28;20052;-84
2023/10/21 11:52:38;;;;;;;0.35;0.20;;;16.20;99.90;;;;;;5093862;28;20044;-84
2023/10/21 11:57:46;;;;;;;0.22;0.20;;;16.40;99.90;;;;;;5107255;28;20508;-82
2023/10/21 12:16:37;;;;;;;0.43;0.35;;;16.50;99.90;;;;;;5090673;28;20152;-83
2023/10/21 12:19:26;;;;;;;0.63;0.30;;;16.70;99.90;;;;;;5106257;28;20108;-83
2023/10/21 12:38:23;;;;;;;0.30;0.20;;;17.40;99.90;;;;;;5107037;28;20058;-80
2023/10/21 12:41:11;;;;;;;0.40;0.40;;;17.50;99.90;;;;;;5103934;28;20105;-80
2023/10/21 12:43:38;;;;;;;0.22;0.22;;;17.90;99.90;;;;;;5088433;28;20055;-82
2023/10/21 12:46:40;;;;;;;0.38;0.30;;;18.30;44.40;;;;;;5102027;28;20047;-80
2023/10/21 12:49:00;;;;;;;0.10;0.10;;;18.50;38.20;;;;;;5098830;28;20055;-80
2023/10/21 12:51:47;;;;;;;0.10;0.10;;;18.20;20.40;;;;;;5110722;28;20569;-82
2023/10/21 12:54:13;;;;;;;0.10;0.10;;;18.00;30.30;;;;;;5100816;28;20043;-79
2023/10/21 12:56:41;;;;;;;0.10;0.10;;;17.70;15.70;;;;;;5104875;28;20474;-82
2023/10/21 12:59:08;;;;;;;0.10;0.10;;;17.50;34.40;;;;;;5105851;28;20477;-82
2023/10/21 13:01:37;;;;;;;0.10;0.10;;;17.30;76.60;;;;;;5106125;28;20055;-81
2023/10/21 13:04:04;;;;;;;0.98;0.30;;;17.20;99.20;;;;;;5106432;28;20113;-83
2023/10/21 13:06:32;;;;;;;0.65;0.30;;;17.00;93.50;;;;;;5104430;28;20399;-82
2023/10/21 13:09:00;;;;;;;0.15;0.10;;;16.80;86.80;;;;;;5105726;28;20718;-82
2023/10/21 13:11:27;;;;;;;0.20;0.20;;;16.60;99.90;;;;;;5105754;28;20051;-82
2023/10/21 13:13:54;;;;;;;0.10;0.10;;;16.50;99.90;;;;;;5104089;28;20047;-82
2023/10/21 13:16:21;;;;;;;0.10;0.10;;;16.40;99.90;;;;;;5087911;28;20227;-82
2023/10/21 13:18:48;;;;;;;0.10;0.10;;;16.70;99.90;;;;;;5105972;28;20411;-83
2023/10/21 13:21:18;;;;;;;0.60;0.35;;;17.00;99.90;;;;;;5104607;28;20512;-82
2023/10/21 13:23:45;;;;;;;0.10;0.10;;;17.20;99.90;;;;;;5099014;28;20101;-83
2023/10/21 13:26:12;;;;;;;0.17;0.10;;;17.20;99.90;;;;;;5084533;28;20083;-82
2023/10/21 13:28:39;;;;;;;0.28;0.17;;;17.00;99.90;;;;;;5085317;28;20132;-82
2023/10/21 13:31:06;;;;;;;0.75;0.28;;;16.80;99.90;;;;;;5067417;28;20064;-83